createdAt,value
2018-09-19T00:15:23.323Z,62.8
2018-09-19T00:48:54.168Z,63.6
2018-09-19T01:05:39.179Z,64.0
2018-09-19T01:22:24.134Z,64.4
2018-09-19T01:39:08.906Z,65.2
2018-09-19T01:55:53.523Z,65.6
2018-09-19T02:12:38.020Z,66.0
2018-09-19T02:29:22.529Z,66.4
2018-09-19T02:46:06.722Z,66.4
2018-09-19T03:02:50.878Z,67.6
2018-09-19T03:19:34.852Z,67.6
2018-09-19T03:36:18.622Z,68.4
2018-09-19T03:53:02.166Z,69.2
2018-09-19T04:09:45.608Z,70.0
2018-09-19T04:26:28.915Z,70.4
2018-09-19T04:43:12.088Z,71.2
2018-09-19T04:59:55.239Z,71.6
2018-09-19T05:16:38.168Z,71.6
2018-09-19T05:33:21.205Z,72.4
2018-09-19T05:50:05.844Z,72.4
2018-09-19T06:06:47.671Z,72.4
2018-09-19T06:23:30.560Z,72.4
2018-09-19T06:40:14.229Z,72.4
2018-09-19T06:50:16.809Z,72.0
2018-09-19T07:07:01.480Z,71.2
2018-09-19T07:23:46.867Z,70.4
2018-09-19T07:33:50.315Z,70.0
2018-09-19T07:47:15.188Z,69.2
2018-09-19T08:04:02.001Z,67.6
2018-09-19T08:17:27.691Z,66.4
2018-09-19T08:30:54.013Z,64.8
2018-09-19T08:44:20.693Z,63.2
2018-09-19T08:57:47.853Z,62.0
2018-09-19T09:14:37.506Z,61.6
2018-09-19T09:31:27.850Z,60.4
2018-09-19T09:48:18.556Z,60.0
2018-09-19T10:05:09.926Z,59.2
2018-09-19T10:18:39.125Z,58.0
2018-09-19T10:35:31.761Z,56.8
2018-09-19T10:52:24.029Z,55.6
2018-09-19T11:09:17.151Z,54.8
2018-09-19T11:26:10.838Z,53.6
2018-09-19T11:43:05.053Z,53.6
2018-09-19T11:59:58.144Z,53.2
2018-09-19T12:16:51.627Z,52.8
2018-09-19T12:33:45.382Z,53.2
2018-09-19T12:50:38.739Z,53.2
2018-09-19T13:07:32.136Z,53.2
2018-09-19T13:24:25.724Z,52.4
2018-09-19T13:41:20.044Z,50.8
2018-09-19T13:58:14.263Z,50.0
2018-09-19T14:15:08.974Z,48.4
2018-09-19T14:32:03.118Z,48.4
2018-09-19T14:48:57.958Z,48.4
2018-09-19T15:05:52.020Z,48.0
2018-09-19T15:22:46.084Z,48.8
2018-09-19T15:39:39.534Z,48.0
2018-09-19T15:56:33.221Z,48.0
2018-09-19T16:13:26.636Z,48.0
2018-09-19T16:30:20.120Z,48.0
2018-09-19T16:43:51.232Z,48.4
2018-09-19T17:00:43.385Z,49.2
2018-09-19T17:14:12.956Z,49.2
2018-09-19T17:31:04.412Z,50.0
2018-09-19T17:47:55.434Z,51.6
2018-09-19T18:04:46.045Z,52.8
2018-09-19T18:21:36.149Z,52.8
2018-09-19T18:38:26.253Z,52.8
2018-09-19T18:55:15.376Z,53.2
2018-09-19T19:12:04.589Z,53.2
2018-09-19T19:28:53.478Z,53.6
2018-09-19T19:45:42.006Z,54.0
2018-09-19T20:02:30.454Z,54.8
2018-09-19T20:19:18.389Z,55.6
2018-09-19T20:36:06.142Z,56.4
2018-09-19T20:52:53.517Z,56.8
2018-09-19T21:09:40.647Z,57.6
2018-09-19T21:26:27.596Z,58.0
2018-09-19T21:43:14.419Z,58.8
2018-09-19T22:00:01.229Z,59.2
2018-09-19T22:16:47.858Z,59.6
2018-09-19T22:33:34.173Z,60.4
2018-09-19T22:50:20.515Z,60.8
2018-09-19T23:07:06.670Z,61.2
2018-09-19T23:23:52.798Z,61.6
2018-09-19T23:40:38.765Z,62.0
2018-09-19T23:57:24.585Z,62.8
